Time;durP1;ratioP1;P1;durP2;ratioP2;P2;SDS_P1;SDS_P2;PMS_P1;PMS_P2;Temp;Humidity;BMP_temperature;BMP_pressure;BME280_temperature;BME280_humidity;BME280_pressure;Samples;Min_cycle;Max_cycle;Signal;HPM_P1;HPM_P2
2023/10/01 00:01:37;;;;;;;2.00;1.38;;;;;;;;;;5135320;27;20272;-91
2023/10/01 00:04:06;;;;;;;3.15;1.80;;;;;;;;;;5134196;27;20267;-92
2023/10/01 00:06:34;;;;;;;1.25;1.10;;;;;;;;;;5135127;28;20221;-92
2023/10/01 00:09:05;;;;;;;1.42;1.33;;;;;;;;;;5148545;27;20207;-89
2023/10/01 00:11:35;;;;;;;1.95;1.70;;;;;;;;;;5159065;27;20211;-90
2023/10/01 00:14:03;;;;;;;1.58;1.30;;;;;;;;;;5158960;27;20186;-90
2023/10/01 00:16:31;;;;;;;1.70;1.50;;;;;;;;;;5157079;27;20223;-91
2023/10/01 00:18:59;;;;;;;1.17;1.05;;;;;;;;;;5140862;27;20215;-91
2023/10/01 00:21:27;;;;;;;1.40;1.30;;;;;;;;;;5140636;27;20309;-91
2023/10/01 00:23:55;;;;;;;1.30;1.20;;;;;;;;;;5145208;27;20195;-91
2023/10/01 00:26:24;;;;;;;1.40;1.30;;;;;;;;;;5139466;27;20200;-91
2023/10/01 00:28:53;;;;;;;1.25;1.15;;;;;;;;;;5139282;27;20219;-91
2023/10/01 00:31:21;;;;;;;1.98;1.10;;;;;;;;;;5138549;27;20281;-92
2023/10/01 00:33:49;;;;;;;4.45;1.70;;;;;;;;;;5137112;27;20203;-91
2023/10/01 00:36:17;;;;;;;2.22;1.70;;;;;;;;;;5138280;27;20309;-92
2023/10/01 00:38:45;;;;;;;1.52;1.42;;;;;;;;;;5138576;27;20620;-93
2023/10/01 00:41:12;;;;;;;1.98;1.77;;;;;;;;;;5147205;27;20206;-91
2023/10/01 00:43:41;;;;;;;2.63;1.75;;;;;;;;;;5138362;27;20202;-91
2023/10/01 00:46:11;;;;;;;2.83;2.25;;;;;;;;;;5138792;27;20206;-91
2023/10/01 00:48:39;;;;;;;3.25;2.33;;;;;;;;;;5138109;27;20195;-91
2023/10/01 00:51:06;;;;;;;1.98;1.45;;;;;;;;;;5138116;27;20282;-92
2023/10/01 00:53:35;;;;;;;1.90;1.52;;;;;;;;;;5137974;27;20213;-91
2023/10/01 00:56:03;;;;;;;3.05;2.05;;;;;;;;;;5137574;27;20652;-92
2023/10/01 00:58:31;;;;;;;2.17;1.73;;;;;;;;;;5146620;27;20214;-91
2023/10/01 01:00:59;;;;;;;2.45;1.50;;;;;;;;;;5139985;27;20195;-91
2023/10/01 01:03:29;;;;;;;2.17;1.98;;;;;;;;;;5136816;27;20256;-92
2023/10/01 01:06:13;;;;;;;2.05;1.65;;;;;;;;;;5119929;27;20264;-91
2023/10/01 01:08:52;;;;;;;2.53;2.03;;;;;;;;;;5117047;27;20215;-91
2023/10/01 01:11:21;;;;;;;2.03;1.55;;;;;;;;;;5117113;28;20207;-91
2023/10/01 01:13:51;;;;;;;1.85;1.75;;;;;;;;;;5116753;28;20234;-91
2023/10/01 01:16:20;;;;;;;2.65;1.70;;;;;;;;;;5117022;28;20207;-91
2023/10/01 01:18:51;;;;;;;2.17;1.58;;;;;;;;;;5116336;28;20198;-91
2023/10/01 01:21:20;;;;;;;2.45;2.13;;;;;;;;;;5117219;28;20211;-91
2023/10/01 01:23:50;;;;;;;1.90;1.67;;;;;;;;;;5116880;28;20200;-91
2023/10/01 01:26:21;;;;;;;2.38;2.15;;;;;;;;;;5116110;28;20199;-91
2023/10/01 01:28:49;;;;;;;2.55;1.80;;;;;;;;;;5116653;28;20211;-93
2023/10/01 01:31:17;;;;;;;1.98;1.85;;;;;;;;;;5116582;27;20200;-92
2023/10/01 01:33:52;;;;;;;3.47;2.40;;;;;;;;;;5123908;27;20289;-92
2023/10/01 01:36:21;;;;;;;1.83;1.70;;;;;;;;;;5137211;27;20229;-92
2023/10/01 01:39:12;;;;;;;2.25;1.75;;;;;;;;;;5136235;27;20219;-92
2023/10/01 01:41:42;;;;;;;2.05;1.80;;;;;;;;;;5136905;27;20281;-92
2023/10/01 01:44:13;;;;;;;2.42;2.15;;;;;;;;;;5136809;27;20199;-92
2023/10/01 01:46:47;;;;;;;2.33;2.00;;;;;;;;;;5136586;27;20246;-92
2023/10/01 01:49:17;;;;;;;1.88;1.75;;;;;;;;;;5136319;27;20625;-92
2023/10/01 01:51:57;;;;;;;3.22;2.20;;;;;;;;;;5136754;27;20194;-92
2023/10/01 01:54:28;;;;;;;2.20;2.00;;;;;;;;;;5136490;27;20747;-92
2023/10/01 01:56:57;;;;;;;2.75;2.22;;;;;;;;;;5137188;27;20199;-92
2023/10/01 01:59:27;;;;;;;2.42;2.20;;;;;;;;;;5137782;27;20233;-93
2023/10/01 02:01:56;;;;;;;4.35;2.35;;;;;;;;;;5137185;27;20854;-92
2023/10/01 02:04:24;;;;;;;2.42;2.10;;;;;;;;;;5134941;27;20276;-94
2023/10/01 02:06:52;;;;;;;2.35;2.10;;;;;;;;;;5136708;27;20206;-92
2023/10/01 02:09:24;;;;;;;2.65;2.00;;;;;;;;;;5136291;27;20215;-91
2023/10/01 02:11:53;;;;;;;2.17;1.95;;;;;;;;;;5136290;27;20206;-92
2023/10/01 02:14:35;;;;;;;1.85;1.75;;;;;;;;;;5136137;27;20232;-92
2023/10/01 02:17:15;;;;;;;1.60;1.50;;;;;;;;;;5143152;27;20202;-92
2023/10/01 02:19:46;;;;;;;2.35;1.65;;;;;;;;;;5135923;27;20222;-92
2023/10/01 02:22:16;;;;;;;2.00;1.48;;;;;;;;;;5136243;27;20210;-92
2023/10/01 02:24:54;;;;;;;1.70;1.45;;;;;;;;;;5135703;27;20206;-92
2023/10/01 02:27:26;;;;;;;2.08;1.60;;;;;;;;;;5135879;27;20202;-92
2023/10/01 02:32:49;;;;;;;3.60;2.65;;;;;;;;;;5135212;27;20282;-92
2023/10/01 02:35:35;;;;;;;3.45;2.55;;;;;;;;;;5134560;27;20579;-92
2023/10/01 02:38:06;;;;;;;2.97;2.28;;;;;;;;;;5135461;27;20757;-92
2023/10/01 02:40:37;;;;;;;2.25;1.80;;;;;;;;;;5135618;27;20231;-92
2023/10/01 02:43:12;;;;;;;3.33;2.33;;;;;;;;;;5135814;27;20198;-92
2023/10/01 02:45:41;;;;;;;2.72;2.53;;;;;;;;;;5135157;27;20206;-92
2023/10/01 02:48:16;;;;;;;5.03;2.85;;;;;;;;;;5135070;27;20199;-91
2023/10/01 02:50:48;;;;;;;2.33;1.73;;;;;;;;;;5135348;27;20222;-92
2023/10/01 02:53:20;;;;;;;2.80;1.95;;;;;;;;;;5135782;27;20228;-92
2023/10/01 02:55:47;;;;;;;2.92;2.35;;;;;;;;;;5134762;27;20240;-92
2023/10/01 02:58:20;;;;;;;2.03;1.73;;;;;;;;;;5134532;27;20700;-92
2023/10/01 03:00:53;;;;;;;2.72;2.30;;;;;;;;;;5135093;27;20233;-92
2023/10/01 03:03:31;;;;;;;2.17;1.98;;;;;;;;;;5132486;27;20293;-91
2023/10/01 03:06:08;;;;;;;4.43;2.72;;;;;;;;;;5134524;27;20285;-92
2023/10/01 03:11:22;;;;;;;2.28;1.90;;;;;;;;;;5134655;27;20287;-93
2023/10/01 03:13:54;;;;;;;2.92;1.92;;;;;;;;;;5134910;27;20213;-92
2023/10/01 03:16:43;;;;;;;2.10;1.70;;;;;;;;;;5135106;27;20565;-92
2023/10/01 03:19:18;;;;;;;3.75;2.05;;;;;;;;;;5134950;27;20797;-92
2023/10/01 03:24:36;;;;;;;1.90;1.75;;;;;;;;;;5135133;27;20210;-92
2023/10/01 03:27:20;;;;;;;2.35;1.92;;;;;;;;;;5134584;27;20236;-91
2023/10/01 03:30:00;;;;;;;2.10;1.90;;;;;;;;;;5134285;27;20283;-93
2023/10/01 03:32:32;;;;;;;2.58;1.70;;;;;;;;;;5134568;27;20486;-93
2023/10/01 03:35:07;;;;;;;1.80;1.70;;;;;;;;;;5131892;27;20264;-92
2023/10/01 03:37:39;;;;;;;2.10;1.90;;;;;;;;;;5134735;27;20202;-92
2023/10/01 03:40:14;;;;;;;1.67;1.55;;;;;;;;;;5137432;27;20215;-92
2023/10/01 03:42:49;;;;;;;2.13;1.92;;;;;;;;;;5137821;27;20198;-91
2023/10/01 03:48:06;;;;;;;2.53;1.88;;;;;;;;;;5083222;28;20200;-91
2023/10/01 03:50:44;;;;;;;2.75;2.47;;;;;;;;;;5089768;28;20296;-92
2023/10/01 03:53:13;;;;;;;1.75;1.65;;;;;;;;;;5090662;28;20224;-92
2023/10/01 03:55:46;;;;;;;1.70;1.50;;;;;;;;;;5091658;28;20279;-91
2023/10/01 03:58:25;;;;;;;1.83;1.65;;;;;;;;;;5086484;28;20239;-91
2023/10/01 04:00:54;;;;;;;1.88;1.70;;;;;;;;;;5088437;28;20250;-91
2023/10/01 04:03:22;;;;;;;1.35;1.27;;;;;;;;;;5087427;28;20946;-92
2023/10/01 04:05:56;;;;;;;2.40;1.98;;;;;;;;;;5086990;28;20210;-91
2023/10/01 04:08:24;;;;;;;1.40;1.30;;;;;;;;;;5087178;28;20611;-91
2023/10/01 04:10:58;;;;;;;1.42;1.33;;;;;;;;;;5087372;28;20318;-91
2023/10/01 04:13:27;;;;;;;1.70;1.48;;;;;;;;;;5087957;28;20208;-92
2023/10/01 04:15:57;;;;;;;1.23;1.20;;;;;;;;;;5087088;28;20609;-91
2023/10/01 04:18:28;;;;;;;3.35;1.73;;;;;;;;;;5085500;28;20230;-91
2023/10/01 04:23:48;;;;;;;2.95;1.60;;;;;;;;;;5089654;28;20310;-92
2023/10/01 04:26:18;;;;;;;1.92;1.30;;;;;;;;;;5088823;28;20208;-91
2023/10/01 04:28:50;;;;;;;1.80;1.70;;;;;;;;;;5085288;28;20578;-90
2023/10/01 04:31:42;;;;;;;2.95;2.05;;;;;;;;;;5100591;28;20192;-91
2023/10/01 04:34:10;;;;;;;1.88;1.75;;;;;;;;;;5113275;28;20689;-91
2023/10/01 04:36:38;;;;;;;2.03;1.88;;;;;;;;;;5113621;28;20253;-92
2023/10/01 04:39:06;;;;;;;1.67;1.58;;;;;;;;;;5105467;28;20236;-91
2023/10/01 04:41:34;;;;;;;3.45;1.85;;;;;;;;;;5087899;28;20251;-91
2023/10/01 04:44:06;;;;;;;2.08;1.52;;;;;;;;;;5087922;28;20205;-92
2023/10/01 04:46:37;;;;;;;3.90;2.72;;;;;;;;;;5086950;28;20216;-92
2023/10/01 04:49:26;;;;;;;1.60;1.50;;;;;;;;;;5086329;28;20230;-91
2023/10/01 04:51:56;;;;;;;2.25;2.05;;;;;;;;;;5086462;28;20236;-91
2023/10/01 04:54:25;;;;;;;5.38;2.03;;;;;;;;;;5086611;28;20200;-91
2023/10/01 04:56:57;;;;;;;2.22;1.67;;;;;;;;;;5087566;28;20580;-91
2023/10/01 04:59:27;;;;;;;3.83;1.85;;;;;;;;;;5086375;28;20761;-92
2023/10/01 05:01:58;;;;;;;2.15;1.67;;;;;;;;;;5090319;28;20250;-93
2023/10/01 05:04:27;;;;;;;1.88;1.73;;;;;;;;;;5098871;28;20204;-92
2023/10/01 05:07:04;;;;;;;1.55;1.45;;;;;;;;;;5091576;28;20208;-91
2023/10/01 05:09:33;;;;;;;2.00;1.80;;;;;;;;;;5092737;28;20238;-91
2023/10/01 05:12:03;;;;;;;2.38;1.90;;;;;;;;;;5090852;28;20227;-92
2023/10/01 05:14:32;;;;;;;1.60;1.48;;;;;;;;;;5091652;28;20243;-91
2023/10/01 05:17:07;;;;;;;2.22;1.73;;;;;;;;;;5091852;27;20330;-91
2023/10/01 05:19:38;;;;;;;1.77;1.65;;;;;;;;;;5097819;28;20227;-92
2023/10/01 05:22:05;;;;;;;1.48;1.38;;;;;;;;;;5089716;28;20204;-92
2023/10/01 05:24:35;;;;;;;1.55;1.30;;;;;;;;;;5091472;28;20206;-91
2023/10/01 05:27:08;;;;;;;2.95;2.00;;;;;;;;;;5088827;28;20206;-91
2023/10/01 05:29:38;;;;;;;2.00;1.60;;;;;;;;;;5090821;28;20225;-92
2023/10/01 05:32:10;;;;;;;2.75;1.92;;;;;;;;;;5092727;28;20258;-91
2023/10/01 05:34:42;;;;;;;1.05;1.05;;;;;;;;;;5090403;28;20205;-91
2023/10/01 05:37:12;;;;;;;1.30;1.20;;;;;;;;;;5093069;28;20242;-91
2023/10/01 05:42:21;;;;;;;1.33;1.23;;;;;;;;;;5092755;28;20208;-90
2023/10/01 05:44:50;;;;;;;1.85;1.60;;;;;;;;;;5091740;28;20261;-92
2023/10/01 05:47:20;;;;;;;1.75;1.50;;;;;;;;;;5106819;27;20204;-94
2023/10/01 05:49:53;;;;;;;2.17;1.55;;;;;;;;;;5122941;27;20215;-92
2023/10/01 05:52:21;;;;;;;1.83;1.70;;;;;;;;;;5116886;28;20187;-92
2023/10/01 05:54:53;;;;;;;1.70;1.60;;;;;;;;;;5117285;27;20207;-92
2023/10/01 05:57:22;;;;;;;3.60;1.65;;;;;;;;;;5117301;28;20205;-91
2023/10/01 05:59:56;;;;;;;2.53;1.40;;;;;;;;;;5118417;28;20230;-92
2023/10/01 06:02:46;;;;;;;1.40;1.30;;;;;;;;;;5116792;28;20191;-92
2023/10/01 06:05:25;;;;;;;1.92;1.60;;;;;;;;;;5124591;27;20657;-91
2023/10/01 06:07:55;;;;;;;1.92;1.73;;;;;;;;;;5138592;27;20214;-92
2023/10/01 06:10:26;;;;;;;1.58;1.48;;;;;;;;;;5138866;27;20222;-92
2023/10/01 06:12:56;;;;;;;1.55;1.45;;;;;;;;;;5137670;27;20240;-92
2023/10/01 06:15:29;;;;;;;2.08;1.80;;;;;;;;;;5138413;27;20206;-92
2023/10/01 06:18:00;;;;;;;1.60;1.50;;;;;;;;;;5138815;27;20282;-91
2023/10/01 06:20:29;;;;;;;1.73;1.63;;;;;;;;;;5139029;27;20215;-91
2023/10/01 06:22:59;;;;;;;1.60;1.50;;;;;;;;;;5143765;27;20229;-92
2023/10/01 06:25:40;;;;;;;2.13;2.00;;;;;;;;;;5152629;27;20286;-92
2023/10/01 06:28:09;;;;;;;2.78;2.42;;;;;;;;;;5141770;27;20626;-93
2023/10/01 06:30:40;;;;;;;2.83;2.35;;;;;;;;;;5139924;27;20609;-93
2023/10/01 06:33:24;;;;;;;3.50;2.13;;;;;;;;;;5147337;27;20228;-93
2023/10/01 06:36:15;;;;;;;1.80;1.70;;;;;;;;;;5130246;27;20639;-93
2023/10/01 06:38:44;;;;;;;2.17;1.90;;;;;;;;;;5096292;28;20227;-93
2023/10/01 06:41:18;;;;;;;2.13;1.42;;;;;;;;;;5095545;28;20266;-93
2023/10/01 06:43:49;;;;;;;2.05;1.85;;;;;;;;;;5095934;28;20291;-93
2023/10/01 06:46:22;;;;;;;2.58;1.75;;;;;;;;;;5095952;28;20680;-92
2023/10/01 06:48:54;;;;;;;4.07;2.38;;;;;;;;;;5101138;28;20211;-92
2023/10/01 06:51:24;;;;;;;2.85;2.55;;;;;;;;;;5095862;28;20230;-93
2023/10/01 06:53:58;;;;;;;3.35;2.55;;;;;;;;;;5098023;28;20192;-93
2023/10/01 06:56:29;;;;;;;2.03;1.77;;;;;;;;;;5096640;28;20227;-91
2023/10/01 06:59:18;;;;;;;3.70;2.55;;;;;;;;;;5098352;28;20212;-91
2023/10/01 07:01:56;;;;;;;2.20;1.75;;;;;;;;;;5097284;28;20601;-93
2023/10/01 07:04:25;;;;;;;3.00;2.40;;;;;;;;;;5109634;27;20209;-92
2023/10/01 07:06:53;;;;;;;2.85;1.88;;;;;;;;;;5136465;27;20646;-92
2023/10/01 07:09:27;;;;;;;2.70;2.17;;;;;;;;;;5136258;27;20460;-92
2023/10/01 07:11:57;;;;;;;2.20;2.00;;;;;;;;;;5136568;27;20202;-92
2023/10/01 07:14:31;;;;;;;1.73;1.63;;;;;;;;;;5135723;27;20195;-91
2023/10/01 07:17:01;;;;;;;2.00;1.80;;;;;;;;;;5136561;27;20247;-92
2023/10/01 07:19:31;;;;;;;2.65;1.48;;;;;;;;;;5135245;27;20783;-92
2023/10/01 07:21:58;;;;;;;2.40;2.20;;;;;;;;;;5135641;27;20219;-92
2023/10/01 07:24:30;;;;;;;2.63;2.10;;;;;;;;;;5135317;27;20195;-91
2023/10/01 07:27:03;;;;;;;1.85;1.75;;;;;;;;;;5135756;27;20199;-91
2023/10/01 07:29:34;;;;;;;2.08;1.90;;;;;;;;;;5135415;27;20600;-92
2023/10/01 07:32:08;;;;;;;2.50;2.10;;;;;;;;;;5135574;27;20285;-92
2023/10/01 07:34:39;;;;;;;2.47;2.17;;;;;;;;;;5111493;27;20207;-92
2023/10/01 07:37:07;;;;;;;1.98;1.83;;;;;;;;;;5130266;27;20251;-92
2023/10/01 07:39:36;;;;;;;1.90;1.80;;;;;;;;;;5135423;27;20219;-92
2023/10/01 07:42:05;;;;;;;1.85;1.73;;;;;;;;;;5134747;27;20609;-92
2023/10/01 07:44:35;;;;;;;2.13;1.92;;;;;;;;;;5135099;27;20203;-92
2023/10/01 07:47:03;;;;;;;1.75;1.65;;;;;;;;;;5135177;27;20191;-93
2023/10/01 07:49:46;;;;;;;3.05;1.90;;;;;;;;;;5134537;27;20235;-92
2023/10/01 07:52:18;;;;;;;2.78;2.10;;;;;;;;;;5134898;27;20203;-92
2023/10/01 07:54:48;;;;;;;2.53;2.28;;;;;;;;;;5135991;27;20194;-92
2023/10/01 07:57:18;;;;;;;1.70;1.60;;;;;;;;;;5137514;27;20202;-92
2023/10/01 07:59:52;;;;;;;2.08;1.55;;;;;;;;;;5134959;27;20219;-91
2023/10/01 08:02:25;;;;;;;1.75;1.65;;;;;;;;;;5134488;27;20214;-92
2023/10/01 08:04:59;;;;;;;2.53;2.13;;;;;;;;;;5119866;27;20638;-92
2023/10/01 08:07:39;;;;;;;2.35;2.15;;;;;;;;;;5134224;27;20202;-92
2023/10/01 08:10:16;;;;;;;2.47;2.00;;;;;;;;;;5134225;28;20207;-91
2023/10/01 08:15:57;;;;;;;2.00;1.80;;;;;;;;;;5133968;28;20682;-92
2023/10/01 08:18:34;;;;;;;1.95;1.75;;;;;;;;;;5133721;28;20223;-91
2023/10/01 08:21:02;;;;;;;3.28;2.40;;;;;;;;;;5134025;28;20229;-92
2023/10/01 08:23:33;;;;;;;2.65;2.10;;;;;;;;;;5134107;28;20619;-92
2023/10/01 08:26:39;;;;;;;2.38;2.17;;;;;;;;;;5134005;28;20198;-91
2023/10/01 08:28:57;;;;;;;3.47;2.10;;;;;;;;;;5133368;27;20198;-91
2023/10/01 08:34:24;;;;;;;2.60;2.40;;;;;;;;;;5118433;27;20192;-92
2023/10/01 08:36:54;;;;;;;3.38;2.30;;;;;;;;;;5136547;27;20282;-92
2023/10/01 08:39:47;;;;;;;3.55;3.25;;;;;;;;;;5138237;27;20268;-91
2023/10/01 08:42:16;;;;;;;3.85;2.47;;;;;;;;;;5137924;27;20223;-91
2023/10/01 08:44:50;;;;;;;3.50;2.80;;;;;;;;;;5138185;27;20194;-91
2023/10/01 08:47:26;;;;;;;4.25;2.55;;;;;;;;;;5137573;27;20206;-92
2023/10/01 08:49:55;;;;;;;5.65;3.92;;;;;;;;;;5137634;27;20218;-92
2023/10/01 08:52:30;;;;;;;4.13;2.90;;;;;;;;;;5137822;27;20242;-91
2023/10/01 08:54:59;;;;;;;4.60;3.30;;;;;;;;;;5140393;27;20220;-93
2023/10/01 08:57:37;;;;;;;3.83;2.40;;;;;;;;;;5161711;27;20186;-91
2023/10/01 09:00:20;;;;;;;3.53;2.95;;;;;;;;;;5162418;27;20266;-92
2023/10/01 09:02:58;;;;;;;3.22;2.35;;;;;;;;;;5161253;27;20219;-91
2023/10/01 09:05:35;;;;;;;5.07;3.13;;;;;;;;;;5123150;27;20198;-92
2023/10/01 09:08:26;;;;;;;5.22;3.25;;;;;;;;;;5137386;27;20213;-92
2023/10/01 09:10:55;;;;;;;3.05;2.58;;;;;;;;;;5137767;27;20700;-92
2023/10/01 09:13:23;;;;;;;7.13;3.65;;;;;;;;;;5137677;27;20727;-91
2023/10/01 09:15:55;;;;;;;3.33;2.85;;;;;;;;;;5137503;27;20198;-91
2023/10/01 09:18:26;;;;;;;2.50;2.30;;;;;;;;;;5137361;27;20567;-92
2023/10/01 09:21:20;;;;;;;3.90;2.58;;;;;;;;;;5138867;27;20596;-91
2023/10/01 09:23:55;;;;;;;7.35;4.45;;;;;;;;;;5137473;27;20195;-92
2023/10/01 09:26:42;;;;;;;4.47;2.92;;;;;;;;;;5138835;27;20202;-90
2023/10/01 09:29:24;;;;;;;2.88;2.58;;;;;;;;;;5136836;27;20282;-91
2023/10/01 09:31:53;;;;;;;5.70;3.08;;;;;;;;;;5137970;27;20619;-92
2023/10/01 09:34:33;;;;;;;3.78;3.33;;;;;;;;;;5122657;27;20317;-93
2023/10/01 09:37:07;;;;;;;4.60;3.35;;;;;;;;;;5138201;27;20199;-92
2023/10/01 09:39:41;;;;;;;3.95;3.53;;;;;;;;;;5137751;27;20230;-93
2023/10/01 09:42:25;;;;;;;4.18;2.78;;;;;;;;;;5137124;27;20238;-93
2023/10/01 09:44:54;;;;;;;3.63;3.10;;;;;;;;;;5136866;27;20214;-92
2023/10/01 09:47:27;;;;;;;3.05;2.75;;;;;;;;;;5136537;27;20199;-92
2023/10/01 09:49:55;;;;;;;4.93;2.85;;;;;;;;;;5138051;27;20230;-91
2023/10/01 09:52:48;;;;;;;3.58;2.53;;;;;;;;;;5136876;27;20225;-92
2023/10/01 09:55:26;;;;;;;4.28;2.67;;;;;;;;;;5136943;27;20264;-93
2023/10/01 09:57:56;;;;;;;5.22;3.38;;;;;;;;;;5137652;27;20210;-92
2023/10/01 10:00:39;;;;;;;4.80;2.90;;;;;;;;;;5137340;27;20240;-93
2023/10/01 10:03:11;;;;;;;7.68;3.42;;;;;;;;;;5137070;27;20253;-93
2023/10/01 10:05:40;;;;;;;3.45;3.15;;;;;;;;;;5123429;27;20290;-92
2023/10/01 10:08:20;;;;;;;6.55;4.18;;;;;;;;;;5136760;27;20199;-93
2023/10/01 10:10:49;;;;;;;4.45;3.72;;;;;;;;;;5137385;27;20223;-92
2023/10/01 10:13:38;;;;;;;6.35;3.00;;;;;;;;;;5137167;27;20233;-94
2023/10/01 10:19:09;;;;;;;4.82;3.72;;;;;;;;;;5138391;27;20318;-92
2023/10/01 10:22:17;;;;;;;6.70;4.43;;;;;;;;;;5136371;27;20295;-92
2023/10/01 10:24:54;;;;;;;7.70;4.72;;;;;;;;;;5136789;27;20202;-92
2023/10/01 10:27:50;;;;;;;4.88;3.55;;;;;;;;;;5136591;27;20205;-92
2023/10/01 10:30:21;;;;;;;3.95;2.95;;;;;;;;;;5136229;27;20687;-92
2023/10/01 10:33:30;;;;;;;4.07;3.50;;;;;;;;;;5136082;27;20221;-92
2023/10/01 10:36:53;;;;;;;5.20;4.28;;;;;;;;;;5124850;27;20262;-92
2023/10/01 10:40:26;;;;;;;4.28;3.00;;;;;;;;;;5053654;28;20594;-93
2023/10/01 10:43:16;;;;;;;3.08;2.70;;;;;;;;;;5069227;28;20235;-93
2023/10/01 10:46:04;;;;;;;4.25;3.45;;;;;;;;;;5096188;28;20258;-92
2023/10/01 10:48:59;;;;;;;5.47;3.90;;;;;;;;;;5095301;28;20184;-93
2023/10/01 10:51:49;;;;;;;4.45;3.72;;;;;;;;;;5095803;28;20211;-92
2023/10/01 10:54:32;;;;;;;4.70;3.50;;;;;;;;;;5090315;28;20722;-91
2023/10/01 10:57:04;;;;;;;6.30;4.78;;;;;;;;;;5098663;28;20204;-91
2023/10/01 10:59:32;;;;;;;5.13;4.10;;;;;;;;;;5100236;28;20216;-94
2023/10/01 11:02:02;;;;;;;5.63;4.25;;;;;;;;;;5098320;28;20224;-93
2023/10/01 11:04:31;;;;;;;3.78;3.33;;;;;;;;;;5102619;27;20636;-92
2023/10/01 11:07:05;;;;;;;4.00;3.15;;;;;;;;;;5136630;27;20270;-92
2023/10/01 11:09:34;;;;;;;5.20;3.63;;;;;;;;;;5136765;27;20215;-92
2023/10/01 11:12:18;;;;;;;4.05;3.47;;;;;;;;;;5137054;27;20657;-92
2023/10/01 11:15:19;;;;;;;3.88;3.50;;;;;;;;;;5135468;27;20211;-91
2023/10/01 11:17:47;;;;;;;3.63;3.10;;;;;;;;;;5135073;27;20216;-92
2023/10/01 11:20:22;;;;;;;4.18;3.72;;;;;;;;;;5136089;27;20226;-93
2023/10/01 11:22:54;;;;;;;5.60;3.97;;;;;;;;;;5135271;27;20665;-92
2023/10/01 11:25:22;;;;;;;4.07;3.67;;;;;;;;;;5135619;27;20205;-92
2023/10/01 11:28:04;;;;;;;4.72;3.60;;;;;;;;;;5136261;27;20202;-92
2023/10/01 11:30:42;;;;;;;4.50;3.67;;;;;;;;;;5137222;27;20219;-92
2023/10/01 11:33:16;;;;;;;3.33;3.03;;;;;;;;;;5135802;27;20190;-92
2023/10/01 11:36:06;;;;;;;3.47;2.97;;;;;;;;;;5122842;27;20281;-93
2023/10/01 11:38:36;;;;;;;3.78;3.42;;;;;;;;;;5135927;27;20205;-92
2023/10/01 11:41:07;;;;;;;5.72;3.75;;;;;;;;;;5136499;27;20202;-92
2023/10/01 11:43:41;;;;;;;5.25;4.20;;;;;;;;;;5136497;27;20218;-92
2023/10/01 11:46:23;;;;;;;5.45;4.03;;;;;;;;;;5136508;27;20202;-93
2023/10/01 11:48:56;;;;;;;6.82;4.63;;;;;;;;;;5136203;27;20225;-92
2023/10/01 11:51:50;;;;;;;4.80;4.20;;;;;;;;;;5136808;27;20202;-92
2023/10/01 11:54:19;;;;;;;5.60;4.40;;;;;;;;;;5137339;27;20199;-92
2023/10/01 11:57:04;;;;;;;5.03;4.07;;;;;;;;;;5137186;27;20221;-90
2023/10/01 11:59:32;;;;;;;4.07;3.65;;;;;;;;;;5134878;27;20215;-91
2023/10/01 12:02:18;;;;;;;4.55;3.30;;;;;;;;;;5135485;27;20187;-92
2023/10/01 12:04:51;;;;;;;4.38;3.90;;;;;;;;;;5119919;27;20395;-93
2023/10/01 12:07:18;;;;;;;5.47;4.13;;;;;;;;;;5135937;27;20655;-93
2023/10/01 12:09:50;;;;;;;5.80;4.53;;;;;;;;;;5145038;27;20222;-92
2023/10/01 12:12:20;;;;;;;4.63;3.78;;;;;;;;;;5138053;27;20219;-92
2023/10/01 12:14:54;;;;;;;4.88;4.28;;;;;;;;;;5135301;27;20578;-92
2023/10/01 12:17:27;;;;;;;5.30;3.88;;;;;;;;;;5135899;28;20208;-92
2023/10/01 12:19:59;;;;;;;4.18;3.35;;;;;;;;;;5135343;28;20278;-93
2023/10/01 12:22:27;;;;;;;4.85;4.13;;;;;;;;;;5135154;28;20202;-92
2023/10/01 12:24:59;;;;;;;4.03;3.47;;;;;;;;;;5135439;28;20218;-92
2023/10/01 12:33:03;;;;;;;4.32;3.53;;;;;;;;;;5133913;27;20199;-92
2023/10/01 12:35:34;;;;;;;3.55;3.22;;;;;;;;;;5110976;28;20209;-92
2023/10/01 12:40:53;;;;;;;3.88;3.30;;;;;;;;;;5114462;27;20589;-92
2023/10/01 12:43:39;;;;;;;5.50;3.92;;;;;;;;;;5135747;28;20267;-93
2023/10/01 12:46:12;;;;;;;5.32;4.13;;;;;;;;;;5134690;27;20661;-92
2023/10/01 12:49:14;;;;;;;5.97;3.55;;;;;;;;;;5133961;28;20612;-92
2023/10/01 12:51:38;;;;;;;4.25;3.72;;;;;;;;;;5134371;27;20195;-91
2023/10/01 12:54:06;;;;;;;4.43;3.65;;;;;;;;;;5134004;28;20197;-92
2023/10/01 12:56:48;;;;;;;3.90;3.28;;;;;;;;;;5138357;28;20195;-91
2023/10/01 12:59:19;;;;;;;4.18;2.95;;;;;;;;;;5133825;27;20218;-92
2023/10/01 13:01:54;;;;;;;4.22;3.47;;;;;;;;;;5134127;28;20657;-93
2023/10/01 13:04:25;;;;;;;7.22;3.75;;;;;;;;;;5118845;28;20231;-93
2023/10/01 13:07:03;;;;;;;6.35;4.85;;;;;;;;;;5144650;28;20191;-92
2023/10/01 13:12:17;;;;;;;4.07;3.67;;;;;;;;;;5134965;28;20290;-92
2023/10/01 13:14:44;;;;;;;4.00;3.58;;;;;;;;;;5134107;28;20230;-92
2023/10/01 13:17:20;;;;;;;5.75;4.65;;;;;;;;;;5144071;28;20220;-90
2023/10/01 13:19:48;;;;;;;6.13;3.80;;;;;;;;;;5157514;27;20279;-91
2023/10/01 13:22:18;;;;;;;6.20;4.00;;;;;;;;;;5157287;27;20241;-91
2023/10/01 13:24:53;;;;;;;5.25;3.50;;;;;;;;;;5154696;27;20223;-92
2023/10/01 13:27:22;;;;;;;5.03;4.10;;;;;;;;;;5138471;27;20195;-92
2023/10/01 13:30:14;;;;;;;6.20;3.90;;;;;;;;;;5138123;27;20219;-92
2023/10/01 13:32:57;;;;;;;6.47;4.65;;;;;;;;;;5139017;27;20199;-93
2023/10/01 13:35:36;;;;;;;5.68;4.10;;;;;;;;;;5123516;27;20195;-92
2023/10/01 13:38:26;;;;;;;6.63;4.90;;;;;;;;;;5137544;27;20203;-92
2023/10/01 14:08:46;;;;;;;5.35;4.22;;;;;;;;;;5161016;27;20194;-91
2023/10/01 14:11:26;;;;;;;6.57;4.43;;;;;;;;;;5161487;27;20183;-91
2023/10/01 14:13:54;;;;;;;4.47;3.63;;;;;;;;;;5161339;27;20206;-91
2023/10/01 14:16:23;;;;;;;3.53;3.13;;;;;;;;;;5161080;27;20218;-91
2023/10/01 14:18:57;;;;;;;6.07;4.13;;;;;;;;;;5160720;27;20206;-92
2023/10/01 14:21:27;;;;;;;5.43;4.00;;;;;;;;;;5161120;27;20187;-90
2023/10/01 14:23:57;;;;;;;6.95;4.18;;;;;;;;;;5160998;27;20233;-90
2023/10/01 14:26:33;;;;;;;5.38;4.47;;;;;;;;;;5161121;27;20202;-91
2023/10/01 14:29:05;;;;;;;7.50;3.80;;;;;;;;;;5160532;27;20206;-92
2023/10/01 14:31:48;;;;;;;4.43;3.78;;;;;;;;;;5160865;27;20217;-91
2023/10/01 14:34:18;;;;;;;4.05;3.28;;;;;;;;;;5143871;27;20195;-91
2023/10/01 14:36:46;;;;;;;3.88;3.50;;;;;;;;;;5160736;27;20221;-91
2023/10/01 14:39:14;;;;;;;6.88;4.65;;;;;;;;;;5160518;27;20213;-91
2023/10/01 14:41:45;;;;;;;5.03;3.97;;;;;;;;;;5154043;27;20195;-92
2023/10/01 14:44:15;;;;;;;5.32;4.25;;;;;;;;;;5137931;27;20621;-93
2023/10/01 14:46:47;;;;;;;4.97;3.85;;;;;;;;;;5137559;27;20302;-92
2023/10/01 14:49:17;;;;;;;6.20;4.57;;;;;;;;;;5136677;27;20254;-92
2023/10/01 14:51:48;;;;;;;4.43;3.90;;;;;;;;;;5137192;27;20199;-93
2023/10/01 14:54:17;;;;;;;3.67;3.10;;;;;;;;;;5137013;27;20203;-92
2023/10/01 14:56:54;;;;;;;7.00;4.78;;;;;;;;;;5139517;27;20195;-92
2023/10/01 14:59:23;;;;;;;5.65;4.18;;;;;;;;;;5137192;27;20228;-92
2023/10/01 15:01:52;;;;;;;4.93;3.90;;;;;;;;;;5137095;27;20252;-92
2023/10/01 15:04:20;;;;;;;4.38;3.67;;;;;;;;;;5119056;27;20224;-92
2023/10/01 15:06:56;;;;;;;4.32;3.10;;;;;;;;;;5135629;27;20290;-92
2023/10/01 15:09:26;;;;;;;5.25;4.35;;;;;;;;;;5136553;27;20222;-91
2023/10/01 15:11:56;;;;;;;5.80;4.40;;;;;;;;;;5136570;27;20199;-92
2023/10/01 15:14:26;;;;;;;3.90;3.03;;;;;;;;;;5137093;27;20227;-90
2023/10/01 15:16:54;;;;;;;6.70;4.68;;;;;;;;;;5136883;27;20191;-91
2023/10/01 15:19:25;;;;;;;4.60;4.10;;;;;;;;;;5136852;27;20297;-92
2023/10/01 15:21:53;;;;;;;4.82;4.32;;;;;;;;;;5141711;27;20223;-92
2023/10/01 15:24:22;;;;;;;5.03;4.38;;;;;;;;;;5146338;27;20222;-92
2023/10/01 15:26:49;;;;;;;4.90;4.30;;;;;;;;;;5142526;27;20202;-93
2023/10/01 15:29:18;;;;;;;3.83;3.25;;;;;;;;;;5137609;27;20771;-93
2023/10/01 15:31:51;;;;;;;4.70;4.03;;;;;;;;;;5139619;27;20281;-94
2023/10/01 15:34:20;;;;;;;5.35;4.38;;;;;;;;;;5121965;27;20232;-94
2023/10/01 15:36:49;;;;;;;5.20;4.03;;;;;;;;;;5138067;27;20264;-93
2023/10/01 15:42:12;;;;;;;4.55;3.53;;;;;;;;;;5137479;27;20194;-92
2023/10/01 15:44:46;;;;;;;4.10;3.40;;;;;;;;;;5137582;27;20226;-93
2023/10/01 15:47:25;;;;;;;4.10;3.45;;;;;;;;;;5137123;27;20575;-92
2023/10/01 15:49:56;;;;;;;4.65;3.85;;;;;;;;;;5137494;27;20290;-94
2023/10/01 15:52:37;;;;;;;4.88;3.25;;;;;;;;;;5136958;27;20207;-91
2023/10/01 15:55:05;;;;;;;4.60;3.55;;;;;;;;;;5137375;27;20199;-93
2023/10/01 15:57:33;;;;;;;4.75;4.20;;;;;;;;;;5137286;27;20280;-92
2023/10/01 16:00:23;;;;;;;5.60;4.00;;;;;;;;;;5137017;27;20692;-92
2023/10/01 16:02:51;;;;;;;4.72;3.78;;;;;;;;;;5136156;27;20203;-93
2023/10/01 16:05:18;;;;;;;4.45;3.60;;;;;;;;;;5118916;27;20245;-92
2023/10/01 16:07:52;;;;;;;7.63;4.28;;;;;;;;;;5137013;27;20262;-92
2023/10/01 16:10:21;;;;;;;4.78;4.10;;;;;;;;;;5138057;27;20218;-92
2023/10/01 16:12:48;;;;;;;4.80;3.92;;;;;;;;;;5138612;28;20278;-92
2023/10/01 16:15:17;;;;;;;4.95;3.67;;;;;;;;;;5145078;28;20223;-91
2023/10/01 16:17:45;;;;;;;5.20;4.05;;;;;;;;;;5136691;28;20226;-93
2023/10/01 16:20:18;;;;;;;5.57;4.13;;;;;;;;;;5137643;28;20653;-92
2023/10/01 16:22:46;;;;;;;3.67;3.38;;;;;;;;;;5136997;28;20227;-92
2023/10/01 16:25:13;;;;;;;4.50;3.45;;;;;;;;;;5137197;28;20233;-92
2023/10/01 16:27:41;;;;;;;4.35;3.55;;;;;;;;;;5138498;28;20234;-93
2023/10/01 16:30:19;;;;;;;3.75;3.03;;;;;;;;;;5137459;28;20214;-93